Time;durP1;ratioP1;P1;durP2;ratioP2;P2;SDS_P1;SDS_P2;PMS_P1;PMS_P2;Temp;Humidity;BMP_temperature;BMP_pressure;BME280_temperature;BME280_humidity;BME280_pressure;Samples;Min_cycle;Max_cycle;Signal;HPM_P1;HPM_P2
2021/10/03 00:00:39;;;;;;;4.45;3.22;;;;;;;-149.78;100.00;50455.81;4824238;29;20094;-72
2021/10/03 00:03:10;;;;;;;6.25;3.33;;;;;;;-149.78;100.00;50440.16;4824504;29;20495;-74
2021/10/03 00:05:37;;;;;;;4.87;3.17;;;;;;;-149.78;100.00;50436.25;4823839;29;20589;-74
2021/10/03 00:08:05;;;;;;;5.55;3.20;;;;;;;-149.78;100.00;50426.47;4818892;29;20279;-74
2021/10/03 00:10:33;;;;;;;5.07;2.88;;;;;;;-149.78;100.00;50424.50;4822300;29;20045;-74
2021/10/03 00:13:03;;;;;;;7.72;3.00;;;;;;;-149.78;100.00;50447.97;4820429;29;20039;-71
2021/10/03 00:15:31;;;;;;;7.05;3.28;;;;;;;-149.78;100.00;50455.81;4819894;29;20046;-71
2021/10/03 00:17:57;;;;;;;4.35;3.08;;;;;;;-149.78;100.00;50416.69;4824400;29;20047;-71
2021/10/03 00:20:23;;;;;;;4.63;3.00;;;;;;;-149.78;100.00;50440.16;4819456;29;20186;-71
2021/10/03 00:22:49;;;;;;;5.13;2.58;;;;;;;-149.78;100.00;50455.81;4817545;29;21019;-74
2021/10/03 00:25:15;;;;;;;3.88;2.30;;;;;;;-149.78;100.00;50424.50;4832679;29;20061;-74
2021/10/03 00:27:42;;;;;;;4.30;2.72;;;;;;;-149.78;100.00;50459.72;4813703;29;20443;-72
2021/10/03 00:30:09;;;;;;;5.60;2.10;;;;;;;-149.78;100.00;50455.81;4842019;29;20475;-72
2021/10/03 00:32:36;;;;;;;8.68;4.38;;;;;;;-149.78;100.00;50432.31;4811519;29;20049;-72
2021/10/03 00:35:02;;;;;;;6.35;1.83;;;;;;;-149.78;100.00;50432.31;4843263;29;20038;-74
2021/10/03 00:37:28;;;;;;;4.30;1.73;;;;;;;-149.78;100.00;50440.16;4813208;29;20368;-74
2021/10/03 00:39:54;;;;;;;3.08;1.70;;;;;;;-149.78;100.00;50453.84;4842312;29;20071;-71
2021/10/03 00:42:20;;;;;;;2.70;1.40;;;;;;;-149.78;100.00;50467.53;4839867;29;20042;-71
2021/10/03 00:44:46;;;;;;;4.53;1.52;;;;;;;-149.78;100.00;50471.44;4842817;29;20106;-71
2021/10/03 00:47:12;;;;;;;1.83;1.13;;;;;;;-149.78;100.00;50459.72;4838914;29;20113;-71
2021/10/03 00:49:37;;;;;;;5.57;1.67;;;;;;;-149.78;100.00;50449.94;4827313;29;20038;-71
2021/10/03 00:52:05;;;;;;;4.22;1.48;;;;;;;-149.78;100.00;50455.81;4826574;29;20038;-71
2021/10/03 00:54:32;;;;;;;3.60;1.42;;;;;;;-149.78;100.00;50420.59;4839852;29;20362;-71
2021/10/03 00:56:59;;;;;;;2.10;1.27;;;;;;;-149.78;100.00;50467.53;4839008;29;20038;-71
2021/10/03 00:59:25;;;;;;;2.42;1.30;;;;;;;-149.78;100.00;50438.19;4841654;29;20516;-71
2021/10/03 01:01:52;;;;;;;3.60;1.40;;;;;;;-149.78;100.00;50389.31;4835695;29;20041;-71
2021/10/03 01:04:18;;;;;;;1.77;1.40;;;;;;;-149.78;100.00;50471.44;4835070;29;20086;-71
2021/10/03 01:06:44;;;;;;;2.45;1.40;;;;;;;-149.78;100.00;50463.63;4827353;29;20038;-71
2021/10/03 01:09:10;;;;;;;2.45;1.15;;;;;;;-149.78;100.00;50436.25;4839046;29;20038;-71
2021/10/03 01:11:35;;;;;;;2.33;1.55;;;;;;;-149.78;100.00;50432.31;4843679;29;20045;-71
2021/10/03 01:14:01;;;;;;;4.75;1.60;;;;;;;-149.78;100.00;50459.72;4841833;29;20044;-72
2021/10/03 01:16:27;;;;;;;4.97;1.65;;;;;;;-149.78;100.00;50461.66;4842536;29;20045;-71
2021/10/03 01:18:55;;;;;;;3.83;2.00;;;;;;;-149.78;100.00;50469.50;4842987;29;20086;-71
2021/10/03 01:21:21;;;;;;;4.50;2.45;;;;;;;-149.78;100.00;50502.75;4824252;29;20046;-71
2021/10/03 01:23:48;;;;;;;3.95;2.30;;;;;;;-149.78;100.00;50457.75;4816996;29;20109;-72
2021/10/03 01:26:14;;;;;;;4.15;2.70;;;;;;;-149.78;100.00;50440.16;4848061;29;20105;-71
2021/10/03 01:28:40;;;;;;;8.07;3.20;;;;;;;-149.78;100.00;50447.97;4839351;29;20034;-71
2021/10/03 01:31:09;;;;;;;4.20;3.15;;;;;;;-149.78;100.00;50451.88;4842217;29;20045;-72
2021/10/03 01:33:36;;;;;;;5.22;2.72;;;;;;;-149.78;100.00;50479.28;4841368;29;20038;-73
2021/10/03 01:36:05;;;;;;;3.80;2.67;;;;;;;-149.78;100.00;50477.31;4794723;29;20049;-72
2021/10/03 01:38:34;;;;;;;4.32;2.42;;;;;;;-149.78;100.00;50436.25;4838929;29;20042;-72
2021/10/03 01:40:59;;;;;;;4.82;2.42;;;;;;;-149.78;100.00;50426.47;4839333;29;20121;-72
2021/10/03 01:43:25;;;;;;;5.57;2.30;;;;;;;-149.78;100.00;50481.22;4834877;29;20479;-72
2021/10/03 01:45:51;;;;;;;4.20;1.73;;;;;;;-149.78;100.00;50463.63;4842975;29;20585;-73
2021/10/03 01:48:20;;;;;;;5.93;3.05;;;;;;;-149.78;100.00;50430.38;4819296;29;20402;-73
2021/10/03 01:50:52;;;;;;;5.90;1.70;;;;;;;-149.78;100.00;50491.00;4842116;29;20545;-73
2021/10/03 01:53:22;;;;;;;;;;;;;;;-149.78;100.00;50459.72;4843270;29;20057;-73
2021/10/03 01:55:49;;;;;;;4.47;1.70;;;;;;;-149.78;100.00;50455.81;4822069;29;20346;-73
2021/10/03 01:58:17;;;;;;;3.22;1.60;;;;;;;-149.78;100.00;50447.97;4809011;29;20062;-74
2021/10/03 02:00:46;;;;;;;2.53;1.38;;;;;;;-149.78;100.00;50475.34;4823487;29;20034;-73
2021/10/03 02:03:12;;;;;;;2.42;1.15;;;;;;;-149.78;100.00;50440.16;4817682;29;20042;-73
2021/10/03 02:05:40;;;;;;;4.00;1.98;;;;;;;-149.78;100.00;50471.44;4839501;29;20034;-74
2021/10/03 02:08:08;;;;;;;3.15;1.00;;;;;;;-149.78;100.00;50447.97;4826513;29;20060;-73
2021/10/03 02:10:35;;;;;;;3.20;1.05;;;;;;;-149.78;100.00;50475.34;4825068;29;20095;-73
2021/10/03 02:13:03;;;;;;;5.72;1.00;;;;;;;-149.78;100.00;50463.63;4825391;29;20052;-73
2021/10/03 02:15:29;;;;;;;5.20;0.95;;;;;;;-149.78;100.00;50465.56;4841337;29;20394;-73
2021/10/03 02:17:55;;;;;;;2.25;1.10;;;;;;;-149.78;100.00;50475.34;4807288;29;20042;-74
2021/10/03 02:20:22;;;;;;;4.32;0.90;;;;;;;-149.78;100.00;50451.88;4838716;29;20044;-74
2021/10/03 02:22:49;;;;;;;1.50;0.85;;;;;;;-149.78;100.00;50459.72;4824878;29;20034;-74
2021/10/03 02:25:16;;;;;;;2.25;0.90;;;;;;;-149.78;100.00;50463.63;4831052;29;20434;-74
2021/10/03 02:27:42;;;;;;;1.10;0.75;;;;;;;-149.78;100.00;50455.81;4844167;29;20044;-74
2021/10/03 02:30:08;;;;;;;6.47;1.13;;;;;;;-149.78;100.00;50467.53;4828991;29;20086;-74
2021/10/03 02:32:35;;;;;;;2.35;0.80;;;;;;;-149.78;100.00;50440.16;4841137;29;20094;-73
2021/10/03 02:35:02;;;;;;;2.92;1.10;;;;;;;-149.78;100.00;50418.63;4825025;29;20037;-74
2021/10/03 02:37:31;;;;;;;2.60;1.20;;;;;;;-149.78;100.00;50469.50;4835741;29;20402;-74
2021/10/03 02:39:57;;;;;;;4.72;1.27;;;;;;;-149.78;100.00;50440.16;4838137;29;20038;-73
2021/10/03 02:42:22;;;;;;;5.28;1.02;;;;;;;-149.78;100.00;50475.34;4839672;29;20146;-74
2021/10/03 02:44:50;;;;;;;2.30;1.10;;;;;;;-149.78;100.00;50451.88;4841829;29;20137;-74
2021/10/03 02:47:16;;;;;;;1.33;1.23;;;;;;;-149.78;100.00;50467.53;4840893;29;20026;-74
2021/10/03 02:49:43;;;;;;;1.70;0.90;;;;;;;-149.78;100.00;50483.19;4825782;29;20439;-74
2021/10/03 02:52:10;;;;;;;3.38;1.08;;;;;;;-149.78;100.00;50475.34;4807323;29;20038;-74
2021/10/03 02:54:37;;;;;;;3.85;1.33;;;;;;;-149.78;100.00;50447.97;4821145;29;20045;-74
2021/10/03 02:57:04;;;;;;;4.30;1.33;;;;;;;-149.78;100.00;50455.81;4841449;29;20045;-74
2021/10/03 02:59:29;;;;;;;3.92;1.25;;;;;;;-149.78;100.00;50461.66;4824466;29;20491;-74
2021/10/03 03:01:55;;;;;;;2.45;1.48;;;;;;;-149.78;100.00;50473.41;4839703;29;20065;-74
2021/10/03 03:04:20;;;;;;;3.58;1.60;;;;;;;-149.78;100.00;50491.00;4840586;29;20041;-74
2021/10/03 03:06:46;;;;;;;6.45;1.70;;;;;;;-149.78;100.00;50483.19;4835459;29;20038;-74
2021/10/03 03:09:12;;;;;;;5.32;1.83;;;;;;;-149.78;100.00;50463.63;4838038;29;20030;-74
2021/10/03 03:11:37;;;;;;;4.30;2.20;;;;;;;-149.78;100.00;50438.19;4837670;29;20577;-74
2021/10/03 03:14:03;;;;;;;6.28;2.13;;;;;;;-149.78;100.00;50455.81;4825496;29;20116;-73
2021/10/03 03:16:29;;;;;;;4.65;2.33;;;;;;;-149.78;100.00;50455.81;4840437;29;20432;-74
2021/10/03 03:18:55;;;;;;;6.07;2.50;;;;;;;-149.78;100.00;50471.44;4821926;29;20125;-74
2021/10/03 03:21:20;;;;;;;4.95;2.67;;;;;;;-149.78;100.00;50467.53;4806735;29;20038;-74
2021/10/03 03:23:46;;;;;;;5.05;2.80;;;;;;;-149.78;100.00;50487.09;4821312;29;20056;-74
2021/10/03 03:26:12;;;;;;;9.23;3.28;;;;;;;-149.78;100.00;50447.97;4848134;29;20050;-74
2021/10/03 03:28:37;;;;;;;4.75;2.92;;;;;;;-149.78;100.00;50477.31;4821748;29;20041;-73
2021/10/03 03:31:03;;;;;;;7.57;3.15;;;;;;;-149.78;100.00;50481.22;4827280;29;20502;-73
2021/10/03 03:33:28;;;;;;;7.97;3.17;;;;;;;-149.78;100.00;50461.66;4833228;29;20380;-74
2021/10/03 03:35:55;;;;;;;8.20;3.50;;;;;;;-149.78;100.00;50467.53;4840860;29;20068;-73
2021/10/03 03:38:21;;;;;;;7.65;3.00;;;;;;;-149.78;100.00;50459.72;4841405;29;20432;-73
2021/10/03 03:40:46;;;;;;;7.57;2.60;;;;;;;-149.78;100.00;50494.91;4817031;29;20068;-74
2021/10/03 03:43:13;;;;;;;8.95;2.95;;;;;;;-149.78;100.00;50436.25;4836741;29;20038;-73
2021/10/03 03:45:39;;;;;;;10.43;2.40;;;;;;;-149.78;100.00;50455.81;4838341;29;20040;-73
2021/10/03 03:48:05;;;;;;;3.78;1.95;;;;;;;-149.78;100.00;50483.19;4821040;29;20029;-73
2021/10/03 03:50:32;;;;;;;3.53;1.33;;;;;;;-149.78;100.00;50506.66;4821360;29;20550;-73
2021/10/03 03:52:58;;;;;;;1.90;1.20;;;;;;;-149.78;100.00;50479.28;4823480;29;20102;-73
2021/10/03 03:55:24;;;;;;;18.75;4.03;;;;;;;-149.78;100.00;50498.81;4826459;29;20037;-73
2021/10/03 03:57:52;;;;;;;3.92;1.23;;;;;;;-149.78;100.00;50483.19;4822246;29;20045;-73
2021/10/03 04:00:19;;;;;;;3.13;1.27;;;;;;;-149.78;100.00;50455.81;4824798;29;20042;-74
2021/10/03 04:02:45;;;;;;;4.97;1.20;;;;;;;-149.78;100.00;50498.81;4824617;29;20034;-74
2021/10/03 04:05:11;;;;;;;2.65;1.50;;;;;;;-149.78;100.00;50494.91;4833424;29;20368;-73
2021/10/03 04:07:37;;;;;;;7.93;1.65;;;;;;;-149.78;100.00;50489.03;4827361;29;20091;-73
2021/10/03 04:10:05;;;;;;;4.25;1.30;;;;;;;-149.78;100.00;50498.81;4836008;29;20490;-73
2021/10/03 04:12:30;;;;;;;3.67;1.10;;;;;;;-149.78;100.00;50487.09;4810687;29;20040;-74
2021/10/03 04:14:56;;;;;;;3.22;1.17;;;;;;;-149.78;100.00;50487.09;4796533;29;20046;-73
2021/10/03 04:17:22;;;;;;;2.38;1.15;;;;;;;-149.78;100.00;50479.28;4841305;29;20030;-73
2021/10/03 04:19:47;;;;;;;6.47;1.33;;;;;;;-149.78;100.00;50520.34;4840727;29;20030;-74
2021/10/03 04:22:14;;;;;;;2.88;1.00;;;;;;;-149.78;100.00;50494.91;4840904;29;20045;-74
2021/10/03 04:24:40;;;;;;;4.15;1.40;;;;;;;-149.78;100.00;50459.72;4822491;29;20038;-74
2021/10/03 04:27:05;;;;;;;8.02;1.05;;;;;;;-149.78;100.00;50494.91;4837847;29;20050;-71
2021/10/03 04:29:31;;;;;;;3.47;1.15;;;;;;;-149.78;100.00;50485.13;4843550;29;20062;-73
2021/10/03 04:31:58;;;;;;;3.10;0.90;;;;;;;-149.78;100.00;50502.75;4838908;29;20098;-73
2021/10/03 04:34:23;;;;;;;7.63;1.20;;;;;;;-149.78;100.00;50498.81;4816365;29;20042;-73
2021/10/03 04:36:50;;;;;;;4.53;1.00;;;;;;;-149.78;100.00;50467.53;4843337;29;20046;-73
2021/10/03 04:39:16;;;;;;;1.33;0.90;;;;;;;-149.78;100.00;50518.38;4842873;29;20136;-73
2021/10/03 04:41:42;;;;;;;2.65;0.90;;;;;;;-149.78;100.00;50467.53;4832654;29;20401;-72
2021/10/03 04:44:08;;;;;;;1.63;0.93;;;;;;;-149.78;100.00;50494.91;4828750;29;20042;-73
2021/10/03 04:46:33;;;;;;;2.25;1.10;;;;;;;-149.78;100.00;50463.63;4831797;29;20090;-73
2021/10/03 04:48:59;;;;;;;3.30;1.20;;;;;;;-149.78;100.00;50534.03;4832773;29;20044;-73
2021/10/03 04:51:25;;;;;;;6.13;1.10;;;;;;;-149.78;100.00;50506.66;4841426;29;20073;-72
2021/10/03 04:53:50;;;;;;;4.40;1.40;;;;;;;-149.78;100.00;50487.09;4842936;29;20053;-73
2021/10/03 04:56:16;;;;;;;2.83;1.10;;;;;;;-149.78;100.00;50502.75;4825603;29;20379;-73
2021/10/03 04:58:42;;;;;;;3.88;1.50;;;;;;;-149.78;100.00;50504.69;4842664;29;20038;-73
2021/10/03 05:01:09;;;;;;;4.97;1.20;;;;;;;-149.78;100.00;50494.91;4825591;29;20049;-73
2021/10/03 05:03:35;;;;;;;4.50;1.17;;;;;;;-149.78;100.00;50483.19;4808352;29;20034;-73
2021/10/03 05:06:07;;;;;;;4.97;1.13;;;;;;;-149.78;100.00;50498.81;4821033;29;20086;-73
2021/10/03 05:08:35;;;;;;;3.70;1.20;;;;;;;-149.78;100.00;50463.63;4842921;29;20033;-73
2021/10/03 05:11:01;;;;;;;3.00;1.23;;;;;;;-149.78;100.00;50492.97;4842560;29;20379;-73
2021/10/03 05:13:27;;;;;;;1.90;1.10;;;;;;;-149.78;100.00;50483.19;4839895;29;20038;-73
2021/10/03 05:15:53;;;;;;;2.67;1.40;;;;;;;-149.78;100.00;50471.44;4842997;29;20395;-73
2021/10/03 05:18:20;;;;;;;1.52;1.15;;;;;;;-149.78;100.00;50504.69;4793233;29;20143;-73
2021/10/03 05:20:45;;;;;;;2.72;1.40;;;;;;;-149.78;100.00;50498.81;4842419;29;20435;-73
2021/10/03 05:23:11;;;;;;;3.72;1.20;;;;;;;-149.78;100.00;50512.50;4841372;29;20083;-73
2021/10/03 05:25:37;;;;;;;5.22;2.35;;;;;;;-149.78;100.00;50491.00;4840170;29;20060;-72
2021/10/03 05:28:02;;;;;;;5.97;1.20;;;;;;;-149.78;100.00;50494.91;4842475;29;20086;-72
2021/10/03 05:30:28;;;;;;;5.53;1.63;;;;;;;-149.78;100.00;50496.88;4835387;29;20069;-72
2021/10/03 05:32:55;;;;;;;7.25;1.33;;;;;;;-149.78;100.00;50487.09;4842420;29;20080;-72
2021/10/03 05:35:21;;;;;;;4.35;1.20;;;;;;;-149.78;100.00;50479.28;4842312;29;20042;-72
2021/10/03 05:37:48;;;;;;;7.57;1.40;;;;;;;-149.78;100.00;50479.28;4824299;29;20030;-73
2021/10/03 05:40:14;;;;;;;1.48;0.93;;;;;;;-149.78;100.00;50424.50;4824101;29;20045;-72
2021/10/03 05:42:39;;;;;;;4.40;1.50;;;;;;;-149.78;100.00;50479.28;4823594;29;20336;-74
2021/10/03 05:45:06;;;;;;;5.95;1.15;;;;;;;-149.78;100.00;50502.75;4841369;29;20044;-73
2021/10/03 05:47:32;;;;;;;8.50;1.38;;;;;;;-149.78;100.00;50524.25;4831215;29;20383;-72
2021/10/03 05:49:57;;;;;;;1.58;1.17;;;;;;;-149.78;100.00;50447.97;4812078;29;20034;-72
2021/10/03 05:52:23;;;;;;;2.55;1.20;;;;;;;-149.78;100.00;50483.19;4840154;29;20482;-73
2021/10/03 05:54:48;;;;;;;8.13;1.20;;;;;;;-149.78;100.00;50510.56;4809188;29;20039;-73
2021/10/03 05:57:14;;;;;;;2.20;1.10;;;;;;;-149.78;100.00;50494.91;4811019;29;20034;-73
2021/10/03 05:59:40;;;;;;;6.05;1.40;;;;;;;-149.78;100.00;50451.88;4827180;29;20061;-73
2021/10/03 06:02:06;;;;;;;3.83;1.02;;;;;;;-149.78;100.00;50520.34;4795466;29;20073;-73
2021/10/03 06:04:32;;;;;;;1.95;1.02;;;;;;;-149.78;100.00;50494.91;4820268;29;20039;-74
2021/10/03 06:06:58;;;;;;;5.53;1.13;;;;;;;-149.78;100.00;50487.09;4831100;29;20046;-73
2021/10/03 06:09:24;;;;;;;6.22;1.35;;;;;;;-149.78;100.00;50479.28;4815102;29;20046;-73
2021/10/03 06:11:50;;;;;;;4.53;1.00;;;;;;;-149.78;100.00;50510.56;4830623;29;20043;-73
2021/10/03 06:14:15;;;;;;;4.55;1.25;;;;;;;-149.78;100.00;50475.34;4832257;29;20179;-73
2021/10/03 06:16:42;;;;;;;5.22;1.33;;;;;;;-149.78;100.00;50512.50;4832838;29;20034;-73
2021/10/03 06:19:10;;;;;;;4.45;1.95;;;;;;;-149.78;100.00;50487.09;4827596;29;20591;-73
2021/10/03 06:21:36;;;;;;;6.03;1.92;;;;;;;-149.78;100.00;50522.28;4822012;29;20046;-73
2021/10/03 06:24:02;;;;;;;3.50;1.23;;;;;;;-149.78;100.00;50459.72;4834318;29;20045;-73
2021/10/03 06:26:30;;;;;;;3.13;1.27;;;;;;;-149.78;100.00;50477.31;4838151;29;20106;-73
2021/10/03 06:28:55;;;;;;;2.85;1.30;;;;;;;-149.78;100.00;50504.69;4835892;29;20053;-73
2021/10/03 06:31:21;;;;;;;5.00;1.13;;;;;;;-149.78;100.00;50483.19;4818646;29;20056;-73
2021/10/03 06:33:47;;;;;;;3.08;1.15;;;;;;;-149.78;100.00;50483.19;4819040;29;20034;-73
2021/10/03 06:36:12;;;;;;;7.28;1.42;;;;;;;-149.78;100.00;50487.09;4834057;29;20042;-73
2021/10/03 06:38:39;;;;;;;4.88;1.48;;;;;;;-149.78;100.00;50498.81;4832696;29;20030;-73
2021/10/03 06:41:05;;;;;;;2.97;1.05;;;;;;;-149.78;100.00;50475.34;4817118;29;20034;-73
2021/10/03 06:43:35;;;;;;;2.90;1.23;;;;;;;-149.78;100.00;50475.34;4835258;29;20504;-71
2021/10/03 06:46:06;;;;;;;5.45;0.98;;;;;;;-149.78;100.00;50459.72;4837344;29;20129;-73
2021/10/03 06:48:32;;;;;;;3.83;1.35;;;;;;;-149.78;100.00;50477.31;4817554;29;20091;-74
2021/10/03 06:50:59;;;;;;;1.52;1.00;;;;;;;-149.78;100.00;50522.28;4823035;29;20098;-75
2021/10/03 06:53:25;;;;;;;2.58;1.27;;;;;;;-149.78;100.00;50487.09;4826116;29;20041;-74
2021/10/03 06:55:53;;;;;;;3.80;1.05;;;;;;;-149.78;100.00;50494.91;4840742;29;20127;-76
2021/10/03 06:58:19;;;;;;;14.40;1.63;;;;;;;-149.78;100.00;50467.53;4840618;29;20030;-77
2021/10/03 07:00:45;;;;;;;3.25;1.20;;;;;;;-149.78;100.00;50467.53;4825313;29;20044;-77
2021/10/03 07:03:11;;;;;;;4.55;1.17;;;;;;;-149.78;100.00;50483.19;4823413;29;20383;-78
2021/10/03 07:05:36;;;;;;;5.38;1.17;;;;;;;-149.78;100.00;50487.09;4820418;29;20353;-75
2021/10/03 07:08:03;;;;;;;3.08;1.33;;;;;;;-149.78;100.00;50434.28;4834281;29;20038;-82
2021/10/03 07:10:29;;;;;;;3.08;0.90;;;;;;;-149.78;100.00;50453.84;4808763;29;20067;-77
2021/10/03 07:12:56;;;;;;;2.80;1.02;;;;;;;-149.78;100.00;50471.44;4807294;29;20049;-77
2021/10/03 07:15:21;;;;;;;1.50;0.82;;;;;;;-149.78;100.00;50475.34;4799731;29;20398;-82
2021/10/03 07:17:47;;;;;;;6.63;1.10;;;;;;;-149.78;100.00;50498.81;4834581;29;20510;-76
2021/10/03 07:20:13;;;;;;;1.52;0.98;;;;;;;-149.78;100.00;50467.53;4809916;29;20049;-76
2021/10/03 07:22:39;;;;;;;3.75;0.90;;;;;;;-149.78;100.00;50475.34;4824541;29;20503;-76
2021/10/03 07:25:07;;;;;;;3.35;1.45;;;;;;;-149.78;100.00;50463.63;4830901;29;20042;-78
2021/10/03 07:27:33;;;;;;;2.95;0.90;;;;;;;-149.78;100.00;50481.22;4838034;29;20050;-73
2021/10/03 07:29:59;;;;;;;3.13;0.90;;;;;;;-149.78;100.00;50492.97;4835509;29;20060;-75
2021/10/03 07:32:24;;;;;;;2.95;0.93;;;;;;;-149.78;100.00;50471.44;4837257;29;20050;-74
2021/10/03 07:34:50;;;;;;;7.15;1.30;;;;;;;-149.78;100.00;50485.13;4834551;29;20124;-75
2021/10/03 07:37:16;;;;;;;6.10;1.40;;;;;;;-149.78;100.00;50440.16;4836087;29;20040;-74
2021/10/03 07:39:45;;;;;;;5.70;1.15;;;;;;;-149.78;100.00;50432.31;4835554;29;20058;-75
2021/10/03 07:42:11;;;;;;;5.45;0.95;;;;;;;-149.78;100.00;50412.78;4822088;29;20069;-74
2021/10/03 07:44:38;;;;;;;5.95;1.30;;;;;;;-149.78;100.00;50412.78;4829177;29;20034;-73
2021/10/03 07:47:04;;;;;;;3.45;0.77;;;;;;;-149.78;100.00;50373.66;4836115;29;20110;-74
2021/10/03 07:49:29;;;;;;;4.82;0.93;;;;;;;-149.78;100.00;50358.00;4817724;29;20049;-75
2021/10/03 07:51:55;;;;;;;2.60;0.75;;;;;;;-149.78;82.47;50303.25;4824491;29;20057;-74
2021/10/03 07:54:22;;;;;;;4.13;0.75;;;;;;;-149.78;77.87;50314.97;4836449;29;20094;-75
2021/10/03 07:56:48;;;;;;;5.15;0.73;;;;;;;-149.78;76.90;50303.25;4816646;29;20105;-74
2021/10/03 07:59:14;;;;;;;2.90;0.73;;;;;;;-149.78;76.67;50295.44;4837778;29;20559;-74
2021/10/03 08:01:39;;;;;;;4.60;0.80;;;;;;;-149.78;74.54;50299.34;4821844;29;20042;-74
2021/10/03 08:04:05;;;;;;;1.48;0.80;;;;;;;-149.78;74.04;50311.06;4837750;29;20688;-74
2021/10/03 08:06:32;;;;;;;2.67;0.73;;;;;;;-149.78;69.57;50295.44;4841602;29;20507;-74
2021/10/03 08:08:59;;;;;;;1.88;1.20;;;;;;;-149.78;67.73;50295.44;4794009;29;20053;-74
2021/10/03 08:11:25;;;;;;;7.13;1.10;;;;;;;-149.78;70.20;50330.63;4819809;29;20046;-75
2021/10/03 08:13:52;;;;;;;4.35;1.00;;;;;;;-149.78;68.13;50291.50;4843637;29;20134;-75
2021/10/03 08:16:21;;;;;;;3.28;0.90;;;;;;;-149.78;68.29;50311.06;4820391;29;20413;-75
2021/10/03 08:18:47;;;;;;;2.53;0.95;;;;;;;-149.78;67.91;50275.88;4826959;29;20112;-75
2021/10/03 08:21:14;;;;;;;1.23;0.60;;;;;;;-149.78;62.88;50291.50;4844536;29;20045;-75
2021/10/03 08:23:39;;;;;;;1.98;0.70;;;;;;;-149.78;57.86;50242.63;4817724;29;20042;-75
2021/10/03 08:26:05;;;;;;;2.05;0.75;;;;;;;-149.78;55.60;50221.13;4841346;29;20065;-75
2021/10/03 08:28:31;;;;;;;3.28;0.80;;;;;;;-149.78;55.11;50234.81;4841482;29;20545;-76
2021/10/03 08:30:57;;;;;;;4.15;0.90;;;;;;;-149.78;53.99;50219.16;4826113;29;20042;-75
2021/10/03 08:33:23;;;;;;;4.13;1.02;;;;;;;-149.78;51.15;50152.66;4825929;29;20458;-75
2021/10/03 08:35:48;;;;;;;1.27;0.70;;;;;;;-149.78;50.00;50138.97;4826596;29;20033;-75
2021/10/03 08:38:14;;;;;;;1.17;0.60;;;;;;;-149.78;50.56;50168.31;4826544;29;20026;-76
2021/10/03 08:40:40;;;;;;;1.50;0.50;;;;;;;-149.78;49.79;50166.34;4844409;29;20065;-76
2021/10/03 08:43:08;;;;;;;2.60;1.60;;;;;;;-149.78;49.89;50176.13;4825939;29;20457;-73
2021/10/03 08:45:43;;;;;;;2.42;0.88;;;;;;;-149.78;48.31;50174.19;4838144;29;20047;-73
2021/10/03 08:48:11;;;;;;;3.15;0.85;;;;;;;-149.78;49.67;50203.50;4842785;29;20026;-72
2021/10/03 08:50:37;;;;;;;4.57;1.60;;;;;;;-149.78;49.84;50158.53;4843717;29;20490;-73
2021/10/03 08:53:03;;;;;;;3.05;0.98;;;;;;;-149.78;49.76;50201.56;4837779;29;20082;-73
2021/10/03 08:55:28;;;;;;;6.65;0.95;;;;;;;-149.78;48.78;50156.56;4841813;29;20089;-73
2021/10/03 08:57:54;;;;;;;3.05;1.52;;;;;;;-149.78;49.78;50135.06;4824305;29;20483;-75
2021/10/03 09:00:22;;;;;;;1.55;0.80;;;;;;;-149.78;49.91;50170.25;4844398;29;20045;-75
2021/10/03 09:03:06;;;;;;;1.23;0.73;;;;;;;-149.78;49.24;50183.97;4825011;29;20077;-76
2021/10/03 09:05:34;;;;;;;4.25;0.85;;;;;;;-149.78;48.08;50142.88;4832248;29;20068;-74
2021/10/03 09:08:06;;;;;;;3.05;0.80;;;;;;;-149.78;47.42;50131.16;4824978;29;20067;-74
2021/10/03 09:10:51;;;;;;;;;;;;;;;-149.78;47.27;50131.16;4843136;29;20038;-74
2021/10/03 09:13:19;;;;;;;2.80;0.90;;;;;;;-149.78;47.40;50117.47;4839838;29;19916;-74
2021/10/03 09:15:46;;;;;;;4.95;0.90;;;;;;;-149.78;46.75;50131.16;4826132;29;20041;-74
2021/10/03 09:18:15;;;;;;;3.28;0.90;;;;;;;-149.78;47.08;50146.81;4841673;29;20041;-74
2021/10/03 09:20:42;;;;;;;2.72;0.80;;;;;;;-149.78;46.72;50123.34;4826226;29;20030;-74
2021/10/03 09:23:15;;;;;;;7.00;0.90;;;;;;;-149.78;46.28;50105.72;4843156;29;20116;-74
2021/10/03 09:25:46;;;;;;;1.38;0.73;;;;;;;-149.78;46.00;50170.25;4822587;29;20137;-73
2021/10/03 09:28:13;;;;;;;1.38;0.93;;;;;;;-149.78;46.15;50131.16;4826266;29;20045;-73
2021/10/03 09:31:00;;;;;;;2.58;0.88;;;;;;;-149.78;45.85;50103.78;4813757;29;20034;-73
2021/10/03 09:33:42;;;;;;;1.52;0.90;;;;;;;-149.78;45.33;50101.81;4820130;29;20038;-73
2021/10/03 09:36:09;;;;;;;1.02;0.73;;;;;;;-149.78;46.91;50156.56;4823100;29;20041;-73
2021/10/03 09:38:51;;;;;;;4.63;0.75;;;;;;;-149.78;48.02;50142.88;4823444;29;20365;-73
2021/10/03 09:41:20;;;;;;;3.67;0.98;;;;;;;-149.78;49.03;50144.84;4816705;29;20121;-73
2021/10/03 09:43:54;;;;;;;7.28;0.90;;;;;;;-149.78;47.75;50146.81;4817942;29;20038;-73
2021/10/03 09:46:38;;;;;;;2.60;0.98;;;;;;;-149.78;46.83;50119.41;4816077;29;20045;-73
2021/10/03 09:49:07;;;;;;;5.05;1.38;;;;;;;-149.78;47.14;50107.69;4817082;29;20062;-72
2021/10/03 09:51:34;;;;;;;3.15;0.60;;;;;;;-149.78;46.31;50084.22;4813203;29;20129;-73
2021/10/03 09:54:00;;;;;;;2.63;0.90;;;;;;;-149.78;47.79;50123.34;4824114;29;20069;-73
2021/10/03 09:56:27;;;;;;;4.00;1.00;;;;;;;-149.78;47.58;50123.34;4820445;29;20042;-72
2021/10/03 09:58:54;;;;;;;2.78;1.15;;;;;;;-149.78;48.43;50152.66;4807873;29;20038;-72
2021/10/03 10:01:22;;;;;;;3.80;1.05;;;;;;;-149.78;47.86;50113.56;4822506;29;20034;-72
2021/10/03 10:03:47;;;;;;;2.97;0.82;;;;;;;-149.78;47.84;50138.97;4823023;29;20037;-73
2021/10/03 10:06:16;;;;;;;4.63;1.08;;;;;;;-149.78;47.78;50115.50;4823383;29;20098;-72
2021/10/03 10:08:43;;;;;;;2.83;0.80;;;;;;;-149.78;46.01;50125.28;4819610;29;20042;-72
2021/10/03 10:11:47;;;;;;;3.72;0.98;;;;;;;-149.78;47.62;50121.38;4823875;29;20490;-72
2021/10/03 10:14:14;;;;;;;3.10;1.10;;;;;;;-149.78;48.58;50135.06;4792587;29;20056;-72
2021/10/03 10:16:49;;;;;;;3.80;0.82;;;;;;;-149.78;49.77;50162.44;4822778;29;20485;-72
2021/10/03 10:19:34;;;;;;;4.65;0.98;;;;;;;-149.78;51.04;50142.88;4816048;29;20046;-72
2021/10/03 10:22:11;;;;;;;3.75;1.00;;;;;;;-149.78;52.63;50162.44;4818099;29;20031;-72
2021/10/03 10:24:43;;;;;;;4.55;1.20;;;;;;;-149.78;56.13;50185.91;4823888;29;20550;-71
2021/10/03 10:27:29;;;;;;;4.60;2.15;;;;;;;-149.78;55.26;50189.81;4833934;29;20041;-72
2021/10/03 10:30:03;;;;;;;2.25;1.08;;;;;;;-149.78;53.67;50185.91;4821991;29;20080;-71
2021/10/03 10:32:54;;;;;;;3.55;1.38;;;;;;;-149.78;53.08;50166.34;4841774;29;20109;-72
2021/10/03 10:35:24;;;;;;;4.63;1.20;;;;;;;-149.78;52.61;50140.94;4839384;29;20034;-72
2021/10/03 10:37:54;;;;;;;3.20;1.00;;;;;;;-149.78;52.69;50189.81;4820210;29;20036;-71
2021/10/03 10:40:21;;;;;;;5.95;1.38;;;;;;;-149.78;53.85;50170.25;4841479;29;20033;-71
2021/10/03 10:43:04;;;;;;;2.92;1.38;;;;;;;-149.78;53.71;50178.09;4819648;29;20037;-71
2021/10/03 10:48:06;;;;;;;3.45;1.17;;;;;;;-149.78;54.83;50183.97;4843061;29;20090;-73
2021/10/03 10:50:33;;;;;;;4.10;1.02;;;;;;;-149.78;54.59;50189.81;4819865;29;20090;-73
2021/10/03 10:53:17;;;;;;;3.47;1.20;;;;;;;-149.78;54.63;50185.91;4835037;29;20094;-74
2021/10/03 10:56:04;;;;;;;2.35;1.15;;;;;;;-149.78;53.80;50166.34;4836605;29;20038;-73
2021/10/03 10:58:39;;;;;;;3.42;0.80;;;;;;;-149.78;54.41;50189.81;4828194;29;20038;-74
2021/10/03 11:01:25;;;;;;;;;;;;;;;;;;;;;
2021/10/03 11:03:54;;;;;;;2.53;0.75;;;;;;;-149.78;55.32;50174.19;4821579;29;20053;-72
2021/10/03 11:06:20;;;;;;;3.70;1.10;;;;;;;-149.78;55.34;50168.31;4834013;29;20053;-72
2021/10/03 11:09:00;;;;;;;4.18;1.13;;;;;;;-149.78;54.59;50150.72;4835767;29;20073;-72
2021/10/03 11:11:42;;;;;;;2.92;1.10;;;;;;;-149.78;55.59;50178.09;4838312;29;20034;-73
2021/10/03 11:14:10;;;;;;;4.35;1.75;;;;;;;-149.78;56.67;50182.00;4810420;29;20038;-73
2021/10/03 11:16:37;;;;;;;4.40;1.17;;;;;;;-149.78;57.94;50185.91;4831071;29;20053;-73
2021/10/03 11:19:24;;;;;;;8.27;0.98;;;;;;;-149.78;60.95;50223.06;4812692;29;20127;-74